sensor_id;sensor_type;location;lat;lon;timestamp;P1;durP1;ratioP1;P2;durP2;ratioP2
28166;SDS011;15455;53.376;-6.262;2022-11-30T00:00:04;27.02;;;12.63;;
28166;SDS011;15455;53.376;-6.262;2022-11-30T00:02:56;25.10;;;14.25;;
28166;SDS011;15455;53.376;-6.262;2022-11-30T00:05:42;25.90;;;11.68;;
28166;SDS011;15455;53.376;-6.262;2022-11-30T00:08:27;23.55;;;11.77;;
28166;SDS011;15455;53.376;-6.262;2022-11-30T00:11:14;24.70;;;11.65;;
28166;SDS011;15455;53.376;-6.262;2022-11-30T00:14:01;17.58;;;8.77;;
28166;SDS011;15455;53.376;-6.262;2022-11-30T00:16:47;20.30;;;8.45;;
28166;SDS011;15455;53.376;-6.262;2022-11-30T00:19:32;18.77;;;9.90;;
28166;SDS011;15455;53.376;-6.262;2022-11-30T00:22:18;16.83;;;8.23;;
28166;SDS011;15455;53.376;-6.262;2022-11-30T00:25:03;18.27;;;7.85;;
28166;SDS011;15455;53.376;-6.262;2022-11-30T00:27:49;12.38;;;7.82;;
28166;SDS011;15455;53.376;-6.262;2022-11-30T00:30:35;15.57;;;7.53;;
28166;SDS011;15455;53.376;-6.262;2022-11-30T00:33:20;13.13;;;7.82;;
28166;SDS011;15455;53.376;-6.262;2022-11-30T00:36:07;15.75;;;7.82;;
28166;SDS011;15455;53.376;-6.262;2022-11-30T00:38:55;16.27;;;8.75;;
28166;SDS011;15455;53.376;-6.262;2022-11-30T00:41:40;17.20;;;8.00;;
28166;SDS011;15455;53.376;-6.262;2022-11-30T00:44:26;12.95;;;6.78;;
28166;SDS011;15455;53.376;-6.262;2022-11-30T00:47:12;14.18;;;6.43;;
28166;SDS011;15455;53.376;-6.262;2022-11-30T00:49:57;12.45;;;6.15;;
28166;SDS011;15455;53.376;-6.262;2022-11-30T00:52:43;14.27;;;5.57;;
28166;SDS011;15455;53.376;-6.262;2022-11-30T00:55:28;14.63;;;6.90;;
28166;SDS011;15455;53.376;-6.262;2022-11-30T00:58:15;13.40;;;5.70;;
28166;SDS011;15455;53.376;-6.262;2022-11-30T01:01:01;11.93;;;5.88;;
28166;SDS011;15455;53.376;-6.262;2022-11-30T01:03:47;9.20;;;5.97;;
28166;SDS011;15455;53.376;-6.262;2022-11-30T01:06:33;13.07;;;5.13;;
28166;SDS011;15455;53.376;-6.262;2022-11-30T01:09:18;17.00;;;6.95;;
28166;SDS011;15455;53.376;-6.262;2022-11-30T01:12:03;10.30;;;5.57;;
28166;SDS011;15455;53.376;-6.262;2022-11-30T01:14:49;11.70;;;5.35;;
28166;SDS011;15455;53.376;-6.262;2022-11-30T01:17:35;10.10;;;5.72;;
28166;SDS011;15455;53.376;-6.262;2022-11-30T01:20:20;15.48;;;6.40;;
28166;SDS011;15455;53.376;-6.262;2022-11-30T01:23:06;11.98;;;5.70;;
28166;SDS011;15455;53.376;-6.262;2022-11-30T01:25:53;13.85;;;7.85;;
28166;SDS011;15455;53.376;-6.262;2022-11-30T01:28:39;13.23;;;6.63;;
28166;SDS011;15455;53.376;-6.262;2022-11-30T01:31:25;15.68;;;6.75;;
28166;SDS011;15455;53.376;-6.262;2022-11-30T01:34:10;19.55;;;6.03;;
28166;SDS011;15455;53.376;-6.262;2022-11-30T01:36:56;12.25;;;5.82;;
28166;SDS011;15455;53.376;-6.262;2022-11-30T01:39:41;14.98;;;6.95;;
28166;SDS011;15455;53.376;-6.262;2022-11-30T01:42:27;12.18;;;6.63;;
28166;SDS011;15455;53.376;-6.262;2022-11-30T01:45:13;16.67;;;6.00;;
28166;SDS011;15455;53.376;-6.262;2022-11-30T01:47:59;12.20;;;5.90;;
28166;SDS011;15455;53.376;-6.262;2022-11-30T01:50:44;14.15;;;6.40;;
28166;SDS011;15455;53.376;-6.262;2022-11-30T01:53:30;9.75;;;5.75;;
28166;SDS011;15455;53.376;-6.262;2022-11-30T01:56:16;17.05;;;5.30;;
28166;SDS011;15455;53.376;-6.262;2022-11-30T01:59:02;16.13;;;6.50;;
28166;SDS011;15455;53.376;-6.262;2022-11-30T02:01:48;13.65;;;6.35;;
28166;SDS011;15455;53.376;-6.262;2022-11-30T02:04:35;16.15;;;6.30;;
28166;SDS011;15455;53.376;-6.262;2022-11-30T02:07:22;15.20;;;6.13;;
28166;SDS011;15455;53.376;-6.262;2022-11-30T02:10:12;16.05;;;7.57;;
28166;SDS011;15455;53.376;-6.262;2022-11-30T02:16:26;11.77;;;6.38;;
28166;SDS011;15455;53.376;-6.262;2022-11-30T02:22:44;9.90;;;5.80;;
28166;SDS011;15455;53.376;-6.262;2022-11-30T02:28:59;14.75;;;6.70;;
28166;SDS011;15455;53.376;-6.262;2022-11-30T02:34:46;11.23;;;5.45;;
28166;SDS011;15455;53.376;-6.262;2022-11-30T02:37:34;11.52;;;5.45;;
28166;SDS011;15455;53.376;-6.262;2022-11-30T02:40:22;12.15;;;5.25;;
28166;SDS011;15455;53.376;-6.262;2022-11-30T02:43:08;16.65;;;5.65;;
28166;SDS011;15455;53.376;-6.262;2022-11-30T02:49:12;13.55;;;4.88;;
28166;SDS011;15455;53.376;-6.262;2022-11-30T02:52:08;12.23;;;4.45;;
28166;SDS011;15455;53.376;-6.262;2022-11-30T02:55:03;19.88;;;5.68;;
28166;SDS011;15455;53.376;-6.262;2022-11-30T02:57:51;8.15;;;4.85;;
28166;SDS011;15455;53.376;-6.262;2022-11-30T03:00:37;12.13;;;3.95;;
28166;SDS011;15455;53.376;-6.262;2022-11-30T03:03:22;11.20;;;4.35;;
28166;SDS011;15455;53.376;-6.262;2022-11-30T03:06:07;8.85;;;5.18;;
28166;SDS011;15455;53.376;-6.262;2022-11-30T03:08:53;10.35;;;4.53;;
28166;SDS011;15455;53.376;-6.262;2022-11-30T03:11:38;11.73;;;4.63;;
28166;SDS011;15455;53.376;-6.262;2022-11-30T03:14:24;8.23;;;3.90;;
28166;SDS011;15455;53.376;-6.262;2022-11-30T03:17:09;8.98;;;3.92;;
28166;SDS011;15455;53.376;-6.262;2022-11-30T03:19:55;9.82;;;4.07;;
28166;SDS011;15455;53.376;-6.262;2022-11-30T03:22:41;9.10;;;3.45;;
28166;SDS011;15455;53.376;-6.262;2022-11-30T03:25:26;12.60;;;3.78;;
28166;SDS011;15455;53.376;-6.262;2022-11-30T03:28:12;7.47;;;3.72;;
28166;SDS011;15455;53.376;-6.262;2022-11-30T03:30:58;8.90;;;3.70;;
28166;SDS011;15455;53.376;-6.262;2022-11-30T03:33:44;12.50;;;3.65;;
28166;SDS011;15455;53.376;-6.262;2022-11-30T03:36:29;6.63;;;3.15;;
28166;SDS011;15455;53.376;-6.262;2022-11-30T03:39:14;19.17;;;3.63;;
28166;SDS011;15455;53.376;-6.262;2022-11-30T03:42:00;9.05;;;3.58;;
28166;SDS011;15455;53.376;-6.262;2022-11-30T03:44:45;4.80;;;3.10;;
28166;SDS011;15455;53.376;-6.262;2022-11-30T03:47:31;8.55;;;3.20;;
28166;SDS011;15455;53.376;-6.262;2022-11-30T03:50:17;12.13;;;4.05;;
28166;SDS011;15455;53.376;-6.262;2022-11-30T03:53:02;13.73;;;4.05;;
28166;SDS011;15455;53.376;-6.262;2022-11-30T03:55:52;6.53;;;2.88;;
28166;SDS011;15455;53.376;-6.262;2022-11-30T03:58:39;15.07;;;2.87;;
28166;SDS011;15455;53.376;-6.262;2022-11-30T04:01:24;7.07;;;2.75;;
28166;SDS011;15455;53.376;-6.262;2022-11-30T04:04:10;10.18;;;3.28;;
28166;SDS011;15455;53.376;-6.262;2022-11-30T04:06:56;7.70;;;3.13;;
28166;SDS011;15455;53.376;-6.262;2022-11-30T04:09:42;5.93;;;2.67;;
28166;SDS011;15455;53.376;-6.262;2022-11-30T04:12:27;8.68;;;3.35;;
28166;SDS011;15455;53.376;-6.262;2022-11-30T04:15:12;12.38;;;3.17;;
28166;SDS011;15455;53.376;-6.262;2022-11-30T04:17:58;10.18;;;3.25;;
28166;SDS011;15455;53.376;-6.262;2022-11-30T04:20:43;7.25;;;2.47;;
28166;SDS011;15455;53.376;-6.262;2022-11-30T04:23:30;7.30;;;3.13;;
28166;SDS011;15455;53.376;-6.262;2022-11-30T04:26:20;5.37;;;2.50;;
28166;SDS011;15455;53.376;-6.262;2022-11-30T04:29:06;9.90;;;3.10;;
28166;SDS011;15455;53.376;-6.262;2022-11-30T04:31:51;6.82;;;2.70;;
28166;SDS011;15455;53.376;-6.262;2022-11-30T04:34:36;12.30;;;3.40;;
28166;SDS011;15455;53.376;-6.262;2022-11-30T04:37:22;6.68;;;2.80;;
28166;SDS011;15455;53.376;-6.262;2022-11-30T04:40:07;6.00;;;2.25;;
28166;SDS011;15455;53.376;-6.262;2022-11-30T04:42:53;12.38;;;3.47;;
28166;SDS011;15455;53.376;-6.262;2022-11-30T04:45:39;4.78;;;2.35;;
28166;SDS011;15455;53.376;-6.262;2022-11-30T04:48:25;8.45;;;2.40;;
28166;SDS011;15455;53.376;-6.262;2022-11-30T04:51:10;4.32;;;2.05;;
28166;SDS011;15455;53.376;-6.262;2022-11-30T04:53:56;10.05;;;1.98;;
28166;SDS011;15455;53.376;-6.262;2022-11-30T04:56:41;10.07;;;2.47;;
28166;SDS011;15455;53.376;-6.262;2022-11-30T04:59:26;4.80;;;2.30;;
28166;SDS011;15455;53.376;-6.262;2022-11-30T05:02:12;11.27;;;2.75;;
28166;SDS011;15455;53.376;-6.262;2022-11-30T05:04:57;6.03;;;2.53;;
28166;SDS011;15455;53.376;-6.262;2022-11-30T05:07:43;9.45;;;2.58;;
28166;SDS011;15455;53.376;-6.262;2022-11-30T05:10:28;14.05;;;2.95;;
28166;SDS011;15455;53.376;-6.262;2022-11-30T05:13:15;5.93;;;2.58;;
28166;SDS011;15455;53.376;-6.262;2022-11-30T05:16:00;4.63;;;2.65;;
28166;SDS011;15455;53.376;-6.262;2022-11-30T05:18:46;9.40;;;2.92;;
28166;SDS011;15455;53.376;-6.262;2022-11-30T05:21:32;6.30;;;3.00;;
28166;SDS011;15455;53.376;-6.262;2022-11-30T05:24:17;17.83;;;3.42;;
28166;SDS011;15455;53.376;-6.262;2022-11-30T05:27:02;16.40;;;5.07;;
28166;SDS011;15455;53.376;-6.262;2022-11-30T05:29:56;9.85;;;4.40;;
28166;SDS011;15455;53.376;-6.262;2022-11-30T05:32:42;21.52;;;4.82;;
28166;SDS011;15455;53.376;-6.262;2022-11-30T05:35:27;11.35;;;5.03;;
28166;SDS011;15455;53.376;-6.262;2022-11-30T05:38:13;9.77;;;4.88;;
28166;SDS011;15455;53.376;-6.262;2022-11-30T05:40:59;15.43;;;5.32;;
28166;SDS011;15455;53.376;-6.262;2022-11-30T05:43:45;21.33;;;6.30;;
28166;SDS011;15455;53.376;-6.262;2022-11-30T05:46:31;10.15;;;5.38;;
28166;SDS011;15455;53.376;-6.262;2022-11-30T05:49:21;20.25;;;5.13;;
28166;SDS011;15455;53.376;-6.262;2022-11-30T05:52:07;23.05;;;5.47;;
28166;SDS011;15455;53.376;-6.262;2022-11-30T05:54:52;19.55;;;5.70;;
28166;SDS011;15455;53.376;-6.262;2022-11-30T05:57:38;11.82;;;5.50;;
28166;SDS011;15455;53.376;-6.262;2022-11-30T06:00:24;17.13;;;5.93;;
28166;SDS011;15455;53.376;-6.262;2022-11-30T06:03:09;16.30;;;4.55;;
28166;SDS011;15455;53.376;-6.262;2022-11-30T06:05:55;14.20;;;5.50;;
28166;SDS011;15455;53.376;-6.262;2022-11-30T06:08:40;19.80;;;6.32;;
28166;SDS011;15455;53.376;-6.262;2022-11-30T06:11:26;17.98;;;5.00;;
28166;SDS011;15455;53.376;-6.262;2022-11-30T06:14:11;17.25;;;5.10;;
28166;SDS011;15455;53.376;-6.262;2022-11-30T06:16:57;19.88;;;5.32;;
28166;SDS011;15455;53.376;-6.262;2022-11-30T06:19:43;19.50;;;4.75;;
28166;SDS011;15455;53.376;-6.262;2022-11-30T06:22:28;20.65;;;4.70;;
28166;SDS011;15455;53.376;-6.262;2022-11-30T06:25:14;20.50;;;5.35;;
28166;SDS011;15455;53.376;-6.262;2022-11-30T06:28:00;18.02;;;4.95;;
28166;SDS011;15455;53.376;-6.262;2022-11-30T06:30:46;13.25;;;4.53;;
28166;SDS011;15455;53.376;-6.262;2022-11-30T06:33:31;10.30;;;4.85;;
28166;SDS011;15455;53.376;-6.262;2022-11-30T06:36:21;12.90;;;5.03;;
28166;SDS011;15455;53.376;-6.262;2022-11-30T06:39:07;11.57;;;5.03;;
28166;SDS011;15455;53.376;-6.262;2022-11-30T06:41:54;21.88;;;5.32;;
28166;SDS011;15455;53.376;-6.262;2022-11-30T06:44:39;17.27;;;5.45;;
28166;SDS011;15455;53.376;-6.262;2022-11-30T06:47:25;23.52;;;4.90;;
28166;SDS011;15455;53.376;-6.262;2022-11-30T06:50:11;14.90;;;4.60;;
28166;SDS011;15455;53.376;-6.262;2022-11-30T06:52:58;15.70;;;4.85;;
28166;SDS011;15455;53.376;-6.262;2022-11-30T06:55:43;16.50;;;5.28;;
28166;SDS011;15455;53.376;-6.262;2022-11-30T06:58:29;12.70;;;4.00;;
28166;SDS011;15455;53.376;-6.262;2022-11-30T07:01:14;18.67;;;5.03;;
28166;SDS011;15455;53.376;-6.262;2022-11-30T07:04:00;14.77;;;4.82;;
28166;SDS011;15455;53.376;-6.262;2022-11-30T07:06:46;23.67;;;5.05;;
28166;SDS011;15455;53.376;-6.262;2022-11-30T07:09:34;10.95;;;4.55;;
28166;SDS011;15455;53.376;-6.262;2022-11-30T07:12:21;16.33;;;4.35;;
28166;SDS011;15455;53.376;-6.262;2022-11-30T07:15:06;13.98;;;4.63;;
28166;SDS011;15455;53.376;-6.262;2022-11-30T07:17:52;22.50;;;4.68;;
28166;SDS011;15455;53.376;-6.262;2022-11-30T07:20:38;18.83;;;4.70;;
28166;SDS011;15455;53.376;-6.262;2022-11-30T07:23:24;17.33;;;4.10;;
28166;SDS011;15455;53.376;-6.262;2022-11-30T07:26:28;11.50;;;4.18;;
28166;SDS011;15455;53.376;-6.262;2022-11-30T07:29:14;12.60;;;3.90;;
28166;SDS011;15455;53.376;-6.262;2022-11-30T07:32:00;12.75;;;4.70;;
28166;SDS011;15455;53.376;-6.262;2022-11-30T07:34:45;16.95;;;4.55;;
28166;SDS011;15455;53.376;-6.262;2022-11-30T07:37:31;9.23;;;4.13;;
28166;SDS011;15455;53.376;-6.262;2022-11-30T07:40:17;18.83;;;4.60;;
28166;SDS011;15455;53.376;-6.262;2022-11-30T07:43:02;18.30;;;4.25;;
28166;SDS011;15455;53.376;-6.262;2022-11-30T07:45:51;21.10;;;4.07;;
28166;SDS011;15455;53.376;-6.262;2022-11-30T07:48:37;10.23;;;4.60;;
28166;SDS011;15455;53.376;-6.262;2022-11-30T07:51:23;16.63;;;5.03;;
28166;SDS011;15455;53.376;-6.262;2022-11-30T07:54:08;8.63;;;4.05;;
28166;SDS011;15455;53.376;-6.262;2022-11-30T07:56:54;18.08;;;4.68;;
28166;SDS011;15455;53.376;-6.262;2022-11-30T07:59:39;15.52;;;4.38;;
28166;SDS011;15455;53.376;-6.262;2022-11-30T08:02:25;15.40;;;4.70;;
28166;SDS011;15455;53.376;-6.262;2022-11-30T08:05:11;15.02;;;4.20;;
28166;SDS011;15455;53.376;-6.262;2022-11-30T08:07:56;7.70;;;3.72;;
28166;SDS011;15455;53.376;-6.262;2022-11-30T08:10:42;11.98;;;3.50;;
28166;SDS011;15455;53.376;-6.262;2022-11-30T08:13:27;11.77;;;3.42;;
28166;SDS011;15455;53.376;-6.262;2022-11-30T08:16:14;17.70;;;4.55;;
28166;SDS011;15455;53.376;-6.262;2022-11-30T08:19:05;10.38;;;4.47;;
28166;SDS011;15455;53.376;-6.262;2022-11-30T08:21:50;17.75;;;4.05;;
28166;SDS011;15455;53.376;-6.262;2022-11-30T08:24:36;6.20;;;3.80;;
28166;SDS011;15455;53.376;-6.262;2022-11-30T08:27:22;10.40;;;3.83;;
28166;SDS011;15455;53.376;-6.262;2022-11-30T08:30:07;8.50;;;4.40;;
28166;SDS011;15455;53.376;-6.262;2022-11-30T08:32:53;12.38;;;3.40;;
28166;SDS011;15455;53.376;-6.262;2022-11-30T08:35:39;17.70;;;4.53;;
28166;SDS011;15455;53.376;-6.262;2022-11-30T08:38:24;15.02;;;4.15;;
28166;SDS011;15455;53.376;-6.262;2022-11-30T08:41:10;13.18;;;4.05;;
28166;SDS011;15455;53.376;-6.262;2022-11-30T08:43:57;21.48;;;4.97;;
28166;SDS011;15455;53.376;-6.262;2022-11-30T08:46:43;15.98;;;5.50;;
28166;SDS011;15455;53.376;-6.262;2022-11-30T08:49:48;11.77;;;4.85;;
28166;SDS011;15455;53.376;-6.262;2022-11-30T08:52:33;26.67;;;5.38;;
28166;SDS011;15455;53.376;-6.262;2022-11-30T08:55:19;18.08;;;5.40;;
28166;SDS011;15455;53.376;-6.262;2022-11-30T08:58:04;16.25;;;5.63;;
28166;SDS011;15455;53.376;-6.262;2022-11-30T09:00:50;13.05;;;5.25;;
28166;SDS011;15455;53.376;-6.262;2022-11-30T09:03:36;19.95;;;5.30;;
28166;SDS011;15455;53.376;-6.262;2022-11-30T09:06:23;23.80;;;5.45;;
28166;SDS011;15455;53.376;-6.262;2022-11-30T09:09:10;25.17;;;5.53;;
28166;SDS011;15455;53.376;-6.262;2022-11-30T09:11:56;21.50;;;5.43;;
28166;SDS011;15455;53.376;-6.262;2022-11-30T09:14:41;14.68;;;5.82;;
28166;SDS011;15455;53.376;-6.262;2022-11-30T09:17:29;12.88;;;5.38;;
28166;SDS011;15455;53.376;-6.262;2022-11-30T09:20:14;21.77;;;5.60;;
28166;SDS011;15455;53.376;-6.262;2022-11-30T09:23:00;22.55;;;5.72;;
28166;SDS011;15455;53.376;-6.262;2022-11-30T09:25:45;23.77;;;5.25;;
28166;SDS011;15455;53.376;-6.262;2022-11-30T09:28:31;13.43;;;4.90;;
28166;SDS011;15455;53.376;-6.262;2022-11-30T09:31:18;20.85;;;5.35;;
28166;SDS011;15455;53.376;-6.262;2022-11-30T09:34:05;15.77;;;5.80;;
28166;SDS011;15455;53.376;-6.262;2022-11-30T09:36:50;24.27;;;5.57;;
28166;SDS011;15455;53.376;-6.262;2022-11-30T09:39:35;15.57;;;4.90;;
28166;SDS011;15455;53.376;-6.262;2022-11-30T09:45:30;14.55;;;4.85;;
28166;SDS011;15455;53.376;-6.262;2022-11-30T09:54:35;7.72;;;4.82;;
28166;SDS011;15455;53.376;-6.262;2022-11-30T09:57:29;18.30;;;4.13;;
28166;SDS011;15455;53.376;-6.262;2022-11-30T10:00:19;11.65;;;4.35;;
28166;SDS011;15455;53.376;-6.262;2022-11-30T10:03:07;9.88;;;3.70;;
28166;SDS011;15455;53.376;-6.262;2022-11-30T10:06:04;15.57;;;3.92;;
28166;SDS011;15455;53.376;-6.262;2022-11-30T10:09:11;20.17;;;4.68;;
28166;SDS011;15455;53.376;-6.262;2022-11-30T10:12:02;17.75;;;4.63;;
28166;SDS011;15455;53.376;-6.262;2022-11-30T10:17:53;12.48;;;3.85;;
28166;SDS011;15455;53.376;-6.262;2022-11-30T10:24:34;11.40;;;3.58;;
28166;SDS011;15455;53.376;-6.262;2022-11-30T10:30:34;7.88;;;3.17;;
28166;SDS011;15455;53.376;-6.262;2022-11-30T10:33:23;9.38;;;3.38;;
28166;SDS011;15455;53.376;-6.262;2022-11-30T10:36:43;9.38;;;3.47;;
28166;SDS011;15455;53.376;-6.262;2022-11-30T10:39:32;15.48;;;3.75;;
28166;SDS011;15455;53.376;-6.262;2022-11-30T10:42:23;6.72;;;3.35;;
28166;SDS011;15455;53.376;-6.262;2022-11-30T10:45:24;14.50;;;3.60;;
28166;SDS011;15455;53.376;-6.262;2022-11-30T10:48:14;19.58;;;3.50;;
28166;SDS011;15455;53.376;-6.262;2022-11-30T10:51:00;11.68;;;3.47;;
28166;SDS011;15455;53.376;-6.262;2022-11-30T10:53:48;12.25;;;3.50;;
28166;SDS011;15455;53.376;-6.262;2022-11-30T10:56:33;12.73;;;3.25;;
28166;SDS011;15455;53.376;-6.262;2022-11-30T10:59:23;8.30;;;3.63;;
28166;SDS011;15455;53.376;-6.262;2022-11-30T11:08:17;8.50;;;4.10;;
28166;SDS011;15455;53.376;-6.262;2022-11-30T11:14:17;15.30;;;3.33;;
28166;SDS011;15455;53.376;-6.262;2022-11-30T11:20:03;8.85;;;3.20;;
28166;SDS011;15455;53.376;-6.262;2022-11-30T11:23:32;15.77;;;3.55;;
28166;SDS011;15455;53.376;-6.262;2022-11-30T11:26:24;12.60;;;3.38;;
28166;SDS011;15455;53.376;-6.262;2022-11-30T11:29:11;6.43;;;3.15;;
28166;SDS011;15455;53.376;-6.262;2022-11-30T11:32:16;13.82;;;3.55;;
28166;SDS011;15455;53.376;-6.262;2022-11-30T11:38:38;4.40;;;2.83;;
28166;SDS011;15455;53.376;-6.262;2022-11-30T11:47:01;8.30;;;2.92;;
28166;SDS011;15455;53.376;-6.262;2022-11-30T11:49:48;14.97;;;3.10;;
28166;SDS011;15455;53.376;-6.262;2022-11-30T11:52:34;6.10;;;2.33;;
28166;SDS011;15455;53.376;-6.262;2022-11-30T11:55:20;7.00;;;2.55;;
28166;SDS011;15455;53.376;-6.262;2022-11-30T11:58:07;8.40;;;3.08;;
28166;SDS011;15455;53.376;-6.262;2022-11-30T12:01:00;11.90;;;3.03;;
28166;SDS011;15455;53.376;-6.262;2022-11-30T12:10:26;9.40;;;2.70;;
28166;SDS011;15455;53.376;-6.262;2022-11-30T12:13:37;6.57;;;3.00;;
28166;SDS011;15455;53.376;-6.262;2022-11-30T12:16:36;8.05;;;2.40;;
28166;SDS011;15455;53.376;-6.262;2022-11-30T12:29:07;14.37;;;3.10;;
28166;SDS011;15455;53.376;-6.262;2022-11-30T12:41:32;12.35;;;3.00;;
28166;SDS011;15455;53.376;-6.262;2022-11-30T12:44:31;11.32;;;2.85;;
28166;SDS011;15455;53.376;-6.262;2022-11-30T12:57:14;13.95;;;2.63;;
28166;SDS011;15455;53.376;-6.262;2022-11-30T13:00:36;8.43;;;3.08;;
28166;SDS011;15455;53.376;-6.262;2022-11-30T13:06:59;9.73;;;2.58;;
28166;SDS011;15455;53.376;-6.262;2022-11-30T13:09:59;5.00;;;2.08;;
28166;SDS011;15455;53.376;-6.262;2022-11-30T13:12:50;7.22;;;2.38;;
28166;SDS011;15455;53.376;-6.262;2022-11-30T13:15:38;6.85;;;3.00;;
28166;SDS011;15455;53.376;-6.262;2022-11-30T13:18:24;5.28;;;1.98;;
28166;SDS011;15455;53.376;-6.262;2022-11-30T13:24:34;8.23;;;1.88;;
28166;SDS011;15455;53.376;-6.262;2022-11-30T13:27:25;4.30;;;1.63;;
28166;SDS011;15455;53.376;-6.262;2022-11-30T13:30:20;7.93;;;1.88;;
28166;SDS011;15455;53.376;-6.262;2022-11-30T13:39:29;12.88;;;2.78;;
28166;SDS011;15455;53.376;-6.262;2022-11-30T13:42:39;6.97;;;1.38;;
28166;SDS011;15455;53.376;-6.262;2022-11-30T13:45:34;9.30;;;1.67;;
28166;SDS011;15455;53.376;-6.262;2022-11-30T13:51:32;7.65;;;1.85;;
28166;SDS011;15455;53.376;-6.262;2022-11-30T14:15:49;7.72;;;1.90;;
28166;SDS011;15455;53.376;-6.262;2022-11-30T14:18:43;3.45;;;2.03;;
28166;SDS011;15455;53.376;-6.262;2022-11-30T14:21:31;3.60;;;2.17;;
28166;SDS011;15455;53.376;-6.262;2022-11-30T14:24:19;7.60;;;2.47;;
28166;SDS011;15455;53.376;-6.262;2022-11-30T14:27:08;4.70;;;2.22;;
28166;SDS011;15455;53.376;-6.262;2022-11-30T14:30:00;5.68;;;2.28;;
28166;SDS011;15455;53.376;-6.262;2022-11-30T14:32:50;6.65;;;2.55;;
28166;SDS011;15455;53.376;-6.262;2022-11-30T14:35:41;4.18;;;1.98;;
28166;SDS011;15455;53.376;-6.262;2022-11-30T14:38:29;6.30;;;3.05;;
28166;SDS011;15455;53.376;-6.262;2022-11-30T14:41:25;6.07;;;2.30;;
28166;SDS011;15455;53.376;-6.262;2022-11-30T14:44:13;9.38;;;2.58;;
28166;SDS011;15455;53.376;-6.262;2022-11-30T14:50:23;9.55;;;2.97;;
28166;SDS011;15455;53.376;-6.262;2022-11-30T14:56:32;11.20;;;2.80;;
28166;SDS011;15455;53.376;-6.262;2022-11-30T15:02:25;12.50;;;2.80;;
28166;SDS011;15455;53.376;-6.262;2022-11-30T15:05:16;8.07;;;2.70;;
28166;SDS011;15455;53.376;-6.262;2022-11-30T15:08:07;8.68;;;3.45;;
28166;SDS011;15455;53.376;-6.262;2022-11-30T15:10:58;11.05;;;3.22;;
28166;SDS011;15455;53.376;-6.262;2022-11-30T15:13:52;8.82;;;2.92;;
28166;SDS011;15455;53.376;-6.262;2022-11-30T15:16:50;7.70;;;3.13;;
28166;SDS011;15455;53.376;-6.262;2022-11-30T15:19:45;6.03;;;2.67;;
28166;SDS011;15455;53.376;-6.262;2022-11-30T15:22:32;9.90;;;2.88;;
28166;SDS011;15455;53.376;-6.262;2022-11-30T15:25:18;12.10;;;3.20;;
28166;SDS011;15455;53.376;-6.262;2022-11-30T15:28:08;6.70;;;3.10;;
28166;SDS011;15455;53.376;-6.262;2022-11-30T15:30:57;15.48;;;3.40;;
28166;SDS011;15455;53.376;-6.262;2022-11-30T15:33:47;10.38;;;3.60;;
28166;SDS011;15455;53.376;-6.262;2022-11-30T15:36:34;14.55;;;3.25;;
28166;SDS011;15455;53.376;-6.262;2022-11-30T15:39:23;10.07;;;3.65;;
28166;SDS011;15455;53.376;-6.262;2022-11-30T15:42:17;10.88;;;3.53;;
28166;SDS011;15455;53.376;-6.262;2022-11-30T15:48:03;10.13;;;4.32;;
28166;SDS011;15455;53.376;-6.262;2022-11-30T15:51:15;8.35;;;3.55;;
28166;SDS011;15455;53.376;-6.262;2022-11-30T15:54:08;15.75;;;6.47;;
28166;SDS011;15455;53.376;-6.262;2022-11-30T15:56:55;26.17;;;14.05;;
28166;SDS011;15455;53.376;-6.262;2022-11-30T15:59:41;18.48;;;11.80;;
28166;SDS011;15455;53.376;-6.262;2022-11-30T16:02:31;20.88;;;9.20;;
28166;SDS011;15455;53.376;-6.262;2022-11-30T16:08:12;14.90;;;5.60;;
28166;SDS011;15455;53.376;-6.262;2022-11-30T16:10:59;16.52;;;4.97;;
28166;SDS011;15455;53.376;-6.262;2022-11-30T16:13:51;10.65;;;5.07;;
28166;SDS011;15455;53.376;-6.262;2022-11-30T16:16:36;24.52;;;8.93;;
28166;SDS011;15455;53.376;-6.262;2022-11-30T16:19:22;17.45;;;9.48;;
28166;SDS011;15455;53.376;-6.262;2022-11-30T16:22:08;13.52;;;7.28;;
28166;SDS011;15455;53.376;-6.262;2022-11-30T16:24:58;14.38;;;4.72;;
28166;SDS011;15455;53.376;-6.262;2022-11-30T16:27:43;18.42;;;4.40;;
28166;SDS011;15455;53.376;-6.262;2022-11-30T16:30:29;10.35;;;4.50;;
28166;SDS011;15455;53.376;-6.262;2022-11-30T16:33:22;16.92;;;6.85;;
28166;SDS011;15455;53.376;-6.262;2022-11-30T16:36:13;16.15;;;5.30;;
28166;SDS011;15455;53.376;-6.262;2022-11-30T16:39:00;17.42;;;5.15;;
28166;SDS011;15455;53.376;-6.262;2022-11-30T16:41:46;17.33;;;5.25;;
28166;SDS011;15455;53.376;-6.262;2022-11-30T16:44:31;17.52;;;6.72;;
28166;SDS011;15455;53.376;-6.262;2022-11-30T16:47:17;14.10;;;5.63;;
28166;SDS011;15455;53.376;-6.262;2022-11-30T16:50:02;16.05;;;5.80;;
28166;SDS011;15455;53.376;-6.262;2022-11-30T16:52:48;23.95;;;8.07;;
28166;SDS011;15455;53.376;-6.262;2022-11-30T16:55:33;18.98;;;8.07;;
28166;SDS011;15455;53.376;-6.262;2022-11-30T16:58:21;19.15;;;9.43;;
28166;SDS011;15455;53.376;-6.262;2022-11-30T17:01:12;24.77;;;7.00;;
28166;SDS011;15455;53.376;-6.262;2022-11-30T17:04:24;11.10;;;5.78;;
28166;SDS011;15455;53.376;-6.262;2022-11-30T17:07:11;21.45;;;5.50;;
28166;SDS011;15455;53.376;-6.262;2022-11-30T17:09:56;12.45;;;5.97;;
28166;SDS011;15455;53.376;-6.262;2022-11-30T17:12:42;19.35;;;6.18;;
28166;SDS011;15455;53.376;-6.262;2022-11-30T17:15:27;13.85;;;6.65;;
28166;SDS011;15455;53.376;-6.262;2022-11-30T17:18:13;13.88;;;6.97;;
28166;SDS011;15455;53.376;-6.262;2022-11-30T17:20:58;16.30;;;6.57;;
28166;SDS011;15455;53.376;-6.262;2022-11-30T17:23:44;13.80;;;7.25;;
28166;SDS011;15455;53.376;-6.262;2022-11-30T17:26:30;14.73;;;6.45;;
28166;SDS011;15455;53.376;-6.262;2022-11-30T17:29:15;14.43;;;8.68;;
28166;SDS011;15455;53.376;-6.262;2022-11-30T17:32:00;15.00;;;7.95;;
28166;SDS011;15455;53.376;-6.262;2022-11-30T17:34:46;15.15;;;8.85;;
28166;SDS011;15455;53.376;-6.262;2022-11-30T17:37:32;14.88;;;7.97;;
28166;SDS011;15455;53.376;-6.262;2022-11-30T17:40:17;22.98;;;8.85;;
28166;SDS011;15455;53.376;-6.262;2022-11-30T17:43:03;20.23;;;9.45;;
28166;SDS011;15455;53.376;-6.262;2022-11-30T17:45:49;15.88;;;8.45;;
28166;SDS011;15455;53.376;-6.262;2022-11-30T17:48:34;17.50;;;7.93;;
28166;SDS011;15455;53.376;-6.262;2022-11-30T17:51:21;22.10;;;10.52;;
28166;SDS011;15455;53.376;-6.262;2022-11-30T17:54:06;16.42;;;9.68;;
28166;SDS011;15455;53.376;-6.262;2022-11-30T17:56:51;23.67;;;13.15;;
28166;SDS011;15455;53.376;-6.262;2022-11-30T17:59:36;31.23;;;12.88;;
28166;SDS011;15455;53.376;-6.262;2022-11-30T18:02:22;38.25;;;15.48;;
28166;SDS011;15455;53.376;-6.262;2022-11-30T18:05:08;32.38;;;16.10;;
28166;SDS011;15455;53.376;-6.262;2022-11-30T18:07:53;42.47;;;18.70;;
28166;SDS011;15455;53.376;-6.262;2022-11-30T18:10:39;52.10;;;26.40;;
28166;SDS011;15455;53.376;-6.262;2022-11-30T18:13:27;54.47;;;26.02;;
28166;SDS011;15455;53.376;-6.262;2022-11-30T18:16:14;41.28;;;23.63;;
28166;SDS011;15455;53.376;-6.262;2022-11-30T18:19:02;50.45;;;26.77;;
28166;SDS011;15455;53.376;-6.262;2022-11-30T18:21:55;46.78;;;24.63;;
28166;SDS011;15455;53.376;-6.262;2022-11-30T18:24:41;46.00;;;24.02;;
28166;SDS011;15455;53.376;-6.262;2022-11-30T18:27:27;39.67;;;20.38;;
28166;SDS011;15455;53.376;-6.262;2022-11-30T18:30:12;38.22;;;19.42;;
28166;SDS011;15455;53.376;-6.262;2022-11-30T18:32:58;24.00;;;14.63;;
28166;SDS011;15455;53.376;-6.262;2022-11-30T18:35:43;25.38;;;12.13;;
28166;SDS011;15455;53.376;-6.262;2022-11-30T18:38:29;15.77;;;10.43;;
28166;SDS011;15455;53.376;-6.262;2022-11-30T18:41:22;22.65;;;12.05;;
28166;SDS011;15455;53.376;-6.262;2022-11-30T18:44:10;20.25;;;10.88;;
28166;SDS011;15455;53.376;-6.262;2022-11-30T18:46:56;20.92;;;10.30;;
28166;SDS011;15455;53.376;-6.262;2022-11-30T18:49:41;19.90;;;10.38;;